sensor_id;sensor_type;location;lat;lon;timestamp;P1;durP1;ratioP1;P2;durP2;ratioP2
36391;SDS011;22639;42.690;23.356;2022-12-07T00:00:42;41.37;;;21.43;;
36391;SDS011;22639;42.690;23.356;2022-12-07T00:03:07;38.63;;;19.87;;
36391;SDS011;22639;42.690;23.356;2022-12-07T00:05:33;41.17;;;19.53;;
36391;SDS011;22639;42.690;23.356;2022-12-07T00:07:58;37.80;;;20.77;;
36391;SDS011;22639;42.690;23.356;2022-12-07T00:10:23;39.50;;;21.70;;
36391;SDS011;22639;42.690;23.356;2022-12-07T00:12:51;33.13;;;19.50;;
36391;SDS011;22639;42.690;23.356;2022-12-07T00:15:16;37.93;;;20.83;;
36391;SDS011;22639;42.690;23.356;2022-12-07T00:17:42;31.30;;;19.43;;
36391;SDS011;22639;42.690;23.356;2022-12-07T00:20:07;24.27;;;16.07;;
36391;SDS011;22639;42.690;23.356;2022-12-07T00:22:33;27.13;;;15.83;;
36391;SDS011;22639;42.690;23.356;2022-12-07T00:24:58;27.13;;;16.93;;
36391;SDS011;22639;42.690;23.356;2022-12-07T00:27:23;33.87;;;17.00;;
36391;SDS011;22639;42.690;23.356;2022-12-07T00:29:48;28.07;;;16.00;;
36391;SDS011;22639;42.690;23.356;2022-12-07T00:32:13;28.43;;;15.40;;
36391;SDS011;22639;42.690;23.356;2022-12-07T00:34:39;26.30;;;14.50;;
36391;SDS011;22639;42.690;23.356;2022-12-07T00:37:04;27.53;;;17.00;;
36391;SDS011;22639;42.690;23.356;2022-12-07T00:39:29;25.83;;;13.60;;
36391;SDS011;22639;42.690;23.356;2022-12-07T00:41:54;26.53;;;14.03;;
36391;SDS011;22639;42.690;23.356;2022-12-07T00:44:19;28.57;;;16.23;;
36391;SDS011;22639;42.690;23.356;2022-12-07T00:46:45;25.50;;;14.77;;
36391;SDS011;22639;42.690;23.356;2022-12-07T00:49:10;22.37;;;14.57;;
36391;SDS011;22639;42.690;23.356;2022-12-07T00:51:36;26.67;;;14.93;;
36391;SDS011;22639;42.690;23.356;2022-12-07T00:54:01;31.47;;;16.00;;
36391;SDS011;22639;42.690;23.356;2022-12-07T00:56:27;26.43;;;15.87;;
36391;SDS011;22639;42.690;23.356;2022-12-07T00:58:54;23.53;;;15.23;;
36391;SDS011;22639;42.690;23.356;2022-12-07T01:01:19;29.93;;;16.80;;
36391;SDS011;22639;42.690;23.356;2022-12-07T01:03:44;30.97;;;16.60;;
36391;SDS011;22639;42.690;23.356;2022-12-07T01:06:09;25.77;;;15.50;;
36391;SDS011;22639;42.690;23.356;2022-12-07T01:08:38;26.20;;;15.63;;
36391;SDS011;22639;42.690;23.356;2022-12-07T01:11:05;23.70;;;15.30;;
36391;SDS011;22639;42.690;23.356;2022-12-07T01:13:31;27.40;;;15.27;;
36391;SDS011;22639;42.690;23.356;2022-12-07T01:15:58;28.90;;;14.97;;
36391;SDS011;22639;42.690;23.356;2022-12-07T01:18:24;25.47;;;14.73;;
36391;SDS011;22639;42.690;23.356;2022-12-07T01:21:12;25.67;;;15.40;;
36391;SDS011;22639;42.690;23.356;2022-12-07T01:23:35;29.60;;;16.23;;
36391;SDS011;22639;42.690;23.356;2022-12-07T01:26:04;29.07;;;15.40;;
36391;SDS011;22639;42.690;23.356;2022-12-07T01:28:29;30.57;;;17.27;;
36391;SDS011;22639;42.690;23.356;2022-12-07T01:30:56;30.17;;;16.53;;
36391;SDS011;22639;42.690;23.356;2022-12-07T01:33:21;22.33;;;14.13;;
36391;SDS011;22639;42.690;23.356;2022-12-07T01:35:46;26.03;;;15.73;;
36391;SDS011;22639;42.690;23.356;2022-12-07T01:38:11;25.70;;;15.90;;
36391;SDS011;22639;42.690;23.356;2022-12-07T01:40:36;31.70;;;16.57;;
36391;SDS011;22639;42.690;23.356;2022-12-07T01:43:02;30.27;;;16.37;;
36391;SDS011;22639;42.690;23.356;2022-12-07T01:45:36;29.50;;;17.00;;
36391;SDS011;22639;42.690;23.356;2022-12-07T01:48:02;29.43;;;17.97;;
36391;SDS011;22639;42.690;23.356;2022-12-07T01:50:29;32.20;;;17.87;;
36391;SDS011;22639;42.690;23.356;2022-12-07T01:52:56;32.20;;;17.90;;
36391;SDS011;22639;42.690;23.356;2022-12-07T01:55:24;30.70;;;17.80;;
36391;SDS011;22639;42.690;23.356;2022-12-07T01:57:50;29.20;;;18.00;;
36391;SDS011;22639;42.690;23.356;2022-12-07T02:00:16;29.13;;;18.67;;
36391;SDS011;22639;42.690;23.356;2022-12-07T02:02:51;27.13;;;15.90;;
36391;SDS011;22639;42.690;23.356;2022-12-07T02:05:17;33.40;;;19.30;;
36391;SDS011;22639;42.690;23.356;2022-12-07T02:07:42;34.33;;;18.67;;
36391;SDS011;22639;42.690;23.356;2022-12-07T02:10:15;33.07;;;20.50;;
36391;SDS011;22639;42.690;23.356;2022-12-07T02:12:40;37.23;;;20.07;;
36391;SDS011;22639;42.690;23.356;2022-12-07T02:15:05;30.87;;;18.27;;
36391;SDS011;22639;42.690;23.356;2022-12-07T02:17:32;31.80;;;18.13;;
36391;SDS011;22639;42.690;23.356;2022-12-07T02:30:48;37.50;;;20.83;;
36391;SDS011;22639;42.690;23.356;2022-12-07T02:33:19;30.57;;;18.93;;
36391;SDS011;22639;42.690;23.356;2022-12-07T02:35:55;35.17;;;19.27;;
36391;SDS011;22639;42.690;23.356;2022-12-07T02:38:26;35.93;;;16.27;;
36391;SDS011;22639;42.690;23.356;2022-12-07T02:41:06;32.43;;;18.83;;
36391;SDS011;22639;42.690;23.356;2022-12-07T02:43:34;30.37;;;18.20;;
36391;SDS011;22639;42.690;23.356;2022-12-07T02:46:01;31.57;;;17.57;;
36391;SDS011;22639;42.690;23.356;2022-12-07T02:48:28;37.03;;;19.07;;
36391;SDS011;22639;42.690;23.356;2022-12-07T02:50:54;24.80;;;17.67;;
36391;SDS011;22639;42.690;23.356;2022-12-07T02:53:35;27.63;;;17.03;;
36391;SDS011;22639;42.690;23.356;2022-12-07T03:01:19;28.73;;;15.30;;
36391;SDS011;22639;42.690;23.356;2022-12-07T03:03:47;26.57;;;15.60;;
36391;SDS011;22639;42.690;23.356;2022-12-07T03:11:14;40.60;;;20.93;;
36391;SDS011;22639;42.690;23.356;2022-12-07T03:18:32;48.60;;;28.67;;
36391;SDS011;22639;42.690;23.356;2022-12-07T03:21:02;56.07;;;33.90;;
36391;SDS011;22639;42.690;23.356;2022-12-07T03:23:29;41.17;;;25.87;;
36391;SDS011;22639;42.690;23.356;2022-12-07T03:25:56;49.73;;;34.83;;
36391;SDS011;22639;42.690;23.356;2022-12-07T03:28:23;38.93;;;22.80;;
36391;SDS011;22639;42.690;23.356;2022-12-07T03:31:00;33.90;;;18.57;;
36391;SDS011;22639;42.690;23.356;2022-12-07T03:33:31;31.87;;;17.97;;
36391;SDS011;22639;42.690;23.356;2022-12-07T03:36:18;27.17;;;15.80;;
36391;SDS011;22639;42.690;23.356;2022-12-07T03:38:49;42.07;;;23.07;;
36391;SDS011;22639;42.690;23.356;2022-12-07T03:41:19;26.23;;;16.70;;
36391;SDS011;22639;42.690;23.356;2022-12-07T03:43:47;31.30;;;19.13;;
36391;SDS011;22639;42.690;23.356;2022-12-07T03:48:46;30.90;;;20.07;;
36391;SDS011;22639;42.690;23.356;2022-12-07T03:51:40;36.43;;;20.70;;
36391;SDS011;22639;42.690;23.356;2022-12-07T03:54:05;34.27;;;20.90;;
36391;SDS011;22639;42.690;23.356;2022-12-07T03:56:32;30.63;;;17.87;;
36391;SDS011;22639;42.690;23.356;2022-12-07T03:58:57;35.20;;;21.67;;
36391;SDS011;22639;42.690;23.356;2022-12-07T04:01:23;37.83;;;21.77;;
36391;SDS011;22639;42.690;23.356;2022-12-07T04:03:48;31.70;;;19.07;;
36391;SDS011;22639;42.690;23.356;2022-12-07T04:06:13;30.13;;;17.63;;
36391;SDS011;22639;42.690;23.356;2022-12-07T04:08:39;34.03;;;21.13;;
36391;SDS011;22639;42.690;23.356;2022-12-07T04:11:04;33.03;;;18.30;;
36391;SDS011;22639;42.690;23.356;2022-12-07T04:13:30;35.37;;;19.13;;
36391;SDS011;22639;42.690;23.356;2022-12-07T04:16:15;31.93;;;17.83;;
36391;SDS011;22639;42.690;23.356;2022-12-07T04:18:40;30.07;;;16.77;;
36391;SDS011;22639;42.690;23.356;2022-12-07T04:21:05;33.00;;;18.17;;
36391;SDS011;22639;42.690;23.356;2022-12-07T04:23:30;30.10;;;19.40;;
36391;SDS011;22639;42.690;23.356;2022-12-07T04:25:56;31.43;;;17.07;;
36391;SDS011;22639;42.690;23.356;2022-12-07T04:28:21;35.43;;;19.53;;
36391;SDS011;22639;42.690;23.356;2022-12-07T04:30:46;30.57;;;16.93;;
36391;SDS011;22639;42.690;23.356;2022-12-07T04:33:11;34.83;;;17.73;;
36391;SDS011;22639;42.690;23.356;2022-12-07T04:35:37;28.00;;;17.73;;
36391;SDS011;22639;42.690;23.356;2022-12-07T04:38:02;33.67;;;18.57;;
36391;SDS011;22639;42.690;23.356;2022-12-07T04:40:27;34.43;;;20.57;;
36391;SDS011;22639;42.690;23.356;2022-12-07T04:42:52;37.60;;;18.97;;
36391;SDS011;22639;42.690;23.356;2022-12-07T04:45:17;29.40;;;16.87;;
36391;SDS011;22639;42.690;23.356;2022-12-07T04:47:43;35.50;;;19.83;;
36391;SDS011;22639;42.690;23.356;2022-12-07T04:50:09;31.37;;;19.40;;
36391;SDS011;22639;42.690;23.356;2022-12-07T04:52:34;37.20;;;22.13;;
36391;SDS011;22639;42.690;23.356;2022-12-07T04:54:59;35.63;;;20.77;;
36391;SDS011;22639;42.690;23.356;2022-12-07T04:57:25;34.50;;;19.03;;
36391;SDS011;22639;42.690;23.356;2022-12-07T04:59:50;34.37;;;18.50;;
36391;SDS011;22639;42.690;23.356;2022-12-07T05:02:15;38.10;;;21.47;;
36391;SDS011;22639;42.690;23.356;2022-12-07T05:04:40;30.33;;;18.87;;
36391;SDS011;22639;42.690;23.356;2022-12-07T05:07:05;33.53;;;19.73;;
36391;SDS011;22639;42.690;23.356;2022-12-07T05:09:31;38.73;;;20.70;;
36391;SDS011;22639;42.690;23.356;2022-12-07T05:11:56;34.53;;;20.10;;
36391;SDS011;22639;42.690;23.356;2022-12-07T05:14:21;32.27;;;20.33;;
36391;SDS011;22639;42.690;23.356;2022-12-07T05:16:47;37.27;;;20.63;;
36391;SDS011;22639;42.690;23.356;2022-12-07T05:19:13;37.90;;;21.10;;
36391;SDS011;22639;42.690;23.356;2022-12-07T05:21:39;37.13;;;22.83;;
36391;SDS011;22639;42.690;23.356;2022-12-07T05:24:04;39.23;;;23.03;;
36391;SDS011;22639;42.690;23.356;2022-12-07T05:26:30;42.00;;;22.00;;
36391;SDS011;22639;42.690;23.356;2022-12-07T05:28:55;39.73;;;22.23;;
36391;SDS011;22639;42.690;23.356;2022-12-07T05:31:21;37.03;;;20.53;;
36391;SDS011;22639;42.690;23.356;2022-12-07T05:33:47;37.07;;;20.93;;
36391;SDS011;22639;42.690;23.356;2022-12-07T05:36:12;38.23;;;22.47;;
36391;SDS011;22639;42.690;23.356;2022-12-07T05:38:37;40.43;;;21.93;;
36391;SDS011;22639;42.690;23.356;2022-12-07T05:41:03;41.07;;;22.13;;
36391;SDS011;22639;42.690;23.356;2022-12-07T05:43:29;44.40;;;20.30;;
36391;SDS011;22639;42.690;23.356;2022-12-07T05:45:55;41.67;;;21.40;;
36391;SDS011;22639;42.690;23.356;2022-12-07T05:48:20;40.43;;;22.03;;
36391;SDS011;22639;42.690;23.356;2022-12-07T05:50:47;40.33;;;22.03;;
36391;SDS011;22639;42.690;23.356;2022-12-07T05:53:12;40.23;;;24.50;;
36391;SDS011;22639;42.690;23.356;2022-12-07T05:55:37;35.80;;;20.33;;
36391;SDS011;22639;42.690;23.356;2022-12-07T05:58:03;37.53;;;21.80;;
36391;SDS011;22639;42.690;23.356;2022-12-07T06:00:46;45.07;;;22.90;;
36391;SDS011;22639;42.690;23.356;2022-12-07T06:03:12;42.57;;;26.53;;
36391;SDS011;22639;42.690;23.356;2022-12-07T06:05:37;40.57;;;23.93;;
36391;SDS011;22639;42.690;23.356;2022-12-07T06:08:02;43.07;;;24.37;;
36391;SDS011;22639;42.690;23.356;2022-12-07T06:10:28;38.77;;;20.53;;
36391;SDS011;22639;42.690;23.356;2022-12-07T06:12:56;38.77;;;21.27;;
36391;SDS011;22639;42.690;23.356;2022-12-07T06:15:22;40.57;;;23.00;;
36391;SDS011;22639;42.690;23.356;2022-12-07T06:17:48;34.93;;;21.17;;
36391;SDS011;22639;42.690;23.356;2022-12-07T06:20:13;35.77;;;22.07;;
36391;SDS011;22639;42.690;23.356;2022-12-07T06:22:38;40.23;;;23.33;;
36391;SDS011;22639;42.690;23.356;2022-12-07T06:25:05;40.43;;;22.23;;
36391;SDS011;22639;42.690;23.356;2022-12-07T06:27:30;39.80;;;22.50;;
36391;SDS011;22639;42.690;23.356;2022-12-07T06:29:57;40.30;;;24.10;;
36391;SDS011;22639;42.690;23.356;2022-12-07T06:32:23;38.07;;;22.37;;
36391;SDS011;22639;42.690;23.356;2022-12-07T06:34:48;39.77;;;24.10;;
36391;SDS011;22639;42.690;23.356;2022-12-07T06:37:13;37.47;;;23.77;;
36391;SDS011;22639;42.690;23.356;2022-12-07T06:39:39;39.00;;;23.37;;
36391;SDS011;22639;42.690;23.356;2022-12-07T06:42:04;39.13;;;22.77;;
36391;SDS011;22639;42.690;23.356;2022-12-07T06:44:29;38.20;;;23.43;;
36391;SDS011;22639;42.690;23.356;2022-12-07T06:46:54;39.30;;;23.87;;
36391;SDS011;22639;42.690;23.356;2022-12-07T06:49:20;42.30;;;21.90;;
36391;SDS011;22639;42.690;23.356;2022-12-07T06:51:45;34.73;;;21.30;;
36391;SDS011;22639;42.690;23.356;2022-12-07T06:54:11;37.53;;;21.93;;
36391;SDS011;22639;42.690;23.356;2022-12-07T06:56:37;34.17;;;21.27;;
36391;SDS011;22639;42.690;23.356;2022-12-07T06:59:02;39.57;;;20.30;;
36391;SDS011;22639;42.690;23.356;2022-12-07T07:01:28;39.53;;;22.87;;
36391;SDS011;22639;42.690;23.356;2022-12-07T07:03:53;38.53;;;21.80;;
36391;SDS011;22639;42.690;23.356;2022-12-07T07:06:19;35.37;;;20.57;;
36391;SDS011;22639;42.690;23.356;2022-12-07T07:08:44;45.67;;;21.00;;
36391;SDS011;22639;42.690;23.356;2022-12-07T07:11:12;37.50;;;22.30;;
36391;SDS011;22639;42.690;23.356;2022-12-07T07:13:47;39.40;;;22.53;;
36391;SDS011;22639;42.690;23.356;2022-12-07T07:16:13;41.57;;;22.60;;
36391;SDS011;22639;42.690;23.356;2022-12-07T07:18:38;41.33;;;24.10;;
36391;SDS011;22639;42.690;23.356;2022-12-07T07:21:04;40.80;;;27.23;;
36391;SDS011;22639;42.690;23.356;2022-12-07T07:23:29;46.03;;;25.00;;
36391;SDS011;22639;42.690;23.356;2022-12-07T07:25:54;43.87;;;26.87;;
36391;SDS011;22639;42.690;23.356;2022-12-07T07:28:20;49.77;;;29.80;;
36391;SDS011;22639;42.690;23.356;2022-12-07T07:30:45;53.80;;;34.70;;
36391;SDS011;22639;42.690;23.356;2022-12-07T07:33:17;56.40;;;35.27;;
36391;SDS011;22639;42.690;23.356;2022-12-07T07:35:42;54.67;;;33.40;;
36391;SDS011;22639;42.690;23.356;2022-12-07T07:38:07;64.30;;;31.07;;
36391;SDS011;22639;42.690;23.356;2022-12-07T07:40:33;44.60;;;29.73;;
36391;SDS011;22639;42.690;23.356;2022-12-07T07:42:58;60.00;;;32.93;;
36391;SDS011;22639;42.690;23.356;2022-12-07T07:45:24;51.03;;;32.63;;
36391;SDS011;22639;42.690;23.356;2022-12-07T07:47:50;63.00;;;37.60;;
36391;SDS011;22639;42.690;23.356;2022-12-07T07:50:15;60.77;;;36.20;;
36391;SDS011;22639;42.690;23.356;2022-12-07T07:52:41;51.07;;;34.23;;
36391;SDS011;22639;42.690;23.356;2022-12-07T07:55:06;48.37;;;34.20;;
36391;SDS011;22639;42.690;23.356;2022-12-07T07:57:35;53.57;;;34.50;;
36391;SDS011;22639;42.690;23.356;2022-12-07T08:00:01;60.87;;;34.50;;
36391;SDS011;22639;42.690;23.356;2022-12-07T08:02:26;48.83;;;31.67;;
36391;SDS011;22639;42.690;23.356;2022-12-07T08:04:54;43.77;;;29.83;;
36391;SDS011;22639;42.690;23.356;2022-12-07T08:07:19;43.93;;;29.20;;
36391;SDS011;22639;42.690;23.356;2022-12-07T08:09:44;42.00;;;27.80;;
36391;SDS011;22639;42.690;23.356;2022-12-07T08:12:10;49.17;;;28.67;;
36391;SDS011;22639;42.690;23.356;2022-12-07T08:14:35;42.17;;;26.53;;
36391;SDS011;22639;42.690;23.356;2022-12-07T08:17:00;50.57;;;30.33;;
36391;SDS011;22639;42.690;23.356;2022-12-07T08:19:26;48.10;;;30.80;;
36391;SDS011;22639;42.690;23.356;2022-12-07T08:21:51;49.47;;;29.63;;
36391;SDS011;22639;42.690;23.356;2022-12-07T08:24:17;48.57;;;28.33;;
36391;SDS011;22639;42.690;23.356;2022-12-07T08:26:42;45.10;;;27.37;;
36391;SDS011;22639;42.690;23.356;2022-12-07T08:29:07;51.67;;;27.77;;
36391;SDS011;22639;42.690;23.356;2022-12-07T08:31:33;42.43;;;27.33;;
36391;SDS011;22639;42.690;23.356;2022-12-07T08:33:58;53.07;;;27.60;;
36391;SDS011;22639;42.690;23.356;2022-12-07T08:36:23;46.67;;;28.73;;
36391;SDS011;22639;42.690;23.356;2022-12-07T08:38:48;46.87;;;25.60;;
36391;SDS011;22639;42.690;23.356;2022-12-07T08:41:14;55.50;;;33.73;;
36391;SDS011;22639;42.690;23.356;2022-12-07T08:43:39;43.27;;;29.57;;
36391;SDS011;22639;42.690;23.356;2022-12-07T08:51:34;43.10;;;24.50;;
36391;SDS011;22639;42.690;23.356;2022-12-07T08:54:00;31.03;;;21.07;;
36391;SDS011;22639;42.690;23.356;2022-12-07T08:56:26;46.70;;;28.70;;
36391;SDS011;22639;42.690;23.356;2022-12-07T08:58:51;36.83;;;25.30;;
36391;SDS011;22639;42.690;23.356;2022-12-07T09:01:17;42.87;;;24.13;;
36391;SDS011;22639;42.690;23.356;2022-12-07T09:03:42;40.33;;;23.37;;
36391;SDS011;22639;42.690;23.356;2022-12-07T09:06:07;39.83;;;24.03;;
36391;SDS011;22639;42.690;23.356;2022-12-07T09:08:43;40.20;;;24.13;;
36391;SDS011;22639;42.690;23.356;2022-12-07T09:11:10;38.03;;;25.00;;
36391;SDS011;22639;42.690;23.356;2022-12-07T09:13:35;45.97;;;25.10;;
36391;SDS011;22639;42.690;23.356;2022-12-07T09:16:01;41.63;;;24.93;;
36391;SDS011;22639;42.690;23.356;2022-12-07T09:18:26;36.80;;;24.57;;
36391;SDS011;22639;42.690;23.356;2022-12-07T09:20:52;48.13;;;26.17;;
36391;SDS011;22639;42.690;23.356;2022-12-07T09:23:17;49.20;;;27.50;;
36391;SDS011;22639;42.690;23.356;2022-12-07T09:25:42;40.33;;;26.20;;
36391;SDS011;22639;42.690;23.356;2022-12-07T09:28:08;41.43;;;27.07;;
36391;SDS011;22639;42.690;23.356;2022-12-07T09:30:34;39.00;;;26.53;;
36391;SDS011;22639;42.690;23.356;2022-12-07T09:32:59;48.03;;;29.43;;
36391;SDS011;22639;42.690;23.356;2022-12-07T09:35:24;43.37;;;27.73;;
36391;SDS011;22639;42.690;23.356;2022-12-07T09:37:50;42.87;;;26.83;;
36391;SDS011;22639;42.690;23.356;2022-12-07T09:40:16;48.33;;;28.87;;
36391;SDS011;22639;42.690;23.356;2022-12-07T09:42:42;50.10;;;28.33;;
36391;SDS011;22639;42.690;23.356;2022-12-07T09:45:11;44.13;;;26.00;;
36391;SDS011;22639;42.690;23.356;2022-12-07T09:47:39;42.73;;;26.60;;
36391;SDS011;22639;42.690;23.356;2022-12-07T09:50:05;39.10;;;25.23;;
36391;SDS011;22639;42.690;23.356;2022-12-07T09:52:31;40.73;;;25.17;;
36391;SDS011;22639;42.690;23.356;2022-12-07T09:54:57;35.67;;;23.17;;
36391;SDS011;22639;42.690;23.356;2022-12-07T09:57:27;40.77;;;23.00;;
36391;SDS011;22639;42.690;23.356;2022-12-07T09:59:55;42.80;;;23.17;;
36391;SDS011;22639;42.690;23.356;2022-12-07T10:04:46;35.57;;;22.63;;
36391;SDS011;22639;42.690;23.356;2022-12-07T10:07:11;40.10;;;24.07;;
36391;SDS011;22639;42.690;23.356;2022-12-07T10:09:36;38.13;;;23.20;;
36391;SDS011;22639;42.690;23.356;2022-12-07T10:12:09;42.03;;;24.60;;
36391;SDS011;22639;42.690;23.356;2022-12-07T10:14:36;38.33;;;24.17;;
36391;SDS011;22639;42.690;23.356;2022-12-07T10:17:02;37.97;;;23.37;;
36391;SDS011;22639;42.690;23.356;2022-12-07T10:19:31;34.47;;;22.23;;
36391;SDS011;22639;42.690;23.356;2022-12-07T10:24:35;38.67;;;21.50;;
36391;SDS011;22639;42.690;23.356;2022-12-07T10:27:04;31.50;;;19.17;;
36391;SDS011;22639;42.690;23.356;2022-12-07T10:29:31;32.60;;;21.30;;
36391;SDS011;22639;42.690;23.356;2022-12-07T10:32:03;30.40;;;19.37;;
36391;SDS011;22639;42.690;23.356;2022-12-07T10:34:33;32.30;;;19.50;;
36391;SDS011;22639;42.690;23.356;2022-12-07T10:39:40;33.55;;;18.83;;
36391;SDS011;22639;42.690;23.356;2022-12-07T10:42:09;28.70;;;19.00;;
36391;SDS011;22639;42.690;23.356;2022-12-07T10:44:40;25.73;;;16.87;;
36391;SDS011;22639;42.690;23.356;2022-12-07T10:52:10;32.00;;;18.77;;
36391;SDS011;22639;42.690;23.356;2022-12-07T11:02:20;29.43;;;18.13;;
36391;SDS011;22639;42.690;23.356;2022-12-07T11:05:05;31.13;;;18.63;;
36391;SDS011;22639;42.690;23.356;2022-12-07T11:10:02;27.90;;;15.63;;
36391;SDS011;22639;42.690;23.356;2022-12-07T11:12:35;30.80;;;18.53;;
36391;SDS011;22639;42.690;23.356;2022-12-07T11:15:10;34.90;;;19.70;;
36391;SDS011;22639;42.690;23.356;2022-12-07T11:20:27;34.37;;;19.53;;
36391;SDS011;22639;42.690;23.356;2022-12-07T11:25:29;29.83;;;18.37;;
36391;SDS011;22639;42.690;23.356;2022-12-07T11:30:44;32.13;;;18.17;;
36391;SDS011;22639;42.690;23.356;2022-12-07T11:35:57;35.77;;;19.50;;
36391;SDS011;22639;42.690;23.356;2022-12-07T11:38:33;35.30;;;18.97;;
36391;SDS011;22639;42.690;23.356;2022-12-07T11:41:03;32.00;;;19.03;;
36391;SDS011;22639;42.690;23.356;2022-12-07T11:46:30;28.30;;;17.80;;
36391;SDS011;22639;42.690;23.356;2022-12-07T11:49:07;34.50;;;20.03;;
36391;SDS011;22639;42.690;23.356;2022-12-07T11:51:36;32.63;;;18.93;;
36391;SDS011;22639;42.690;23.356;2022-12-07T11:54:03;24.03;;;15.13;;
36391;SDS011;22639;42.690;23.356;2022-12-07T11:56:30;18.80;;;12.20;;
36391;SDS011;22639;42.690;23.356;2022-12-07T12:06:38;25.80;;;12.07;;
36391;SDS011;22639;42.690;23.356;2022-12-07T12:09:05;22.50;;;12.20;;
36391;SDS011;22639;42.690;23.356;2022-12-07T12:17:01;18.73;;;11.73;;
36391;SDS011;22639;42.690;23.356;2022-12-07T12:19:32;19.80;;;12.60;;
36391;SDS011;22639;42.690;23.356;2022-12-07T12:22:03;23.47;;;14.70;;
36391;SDS011;22639;42.690;23.356;2022-12-07T12:24:31;32.90;;;17.17;;
36391;SDS011;22639;42.690;23.356;2022-12-07T12:27:09;24.40;;;15.10;;
36391;SDS011;22639;42.690;23.356;2022-12-07T12:34:39;33.43;;;18.57;;
36391;SDS011;22639;42.690;23.356;2022-12-07T12:42:43;37.13;;;21.33;;
36391;SDS011;22639;42.690;23.356;2022-12-07T12:48:04;42.07;;;22.87;;
36391;SDS011;22639;42.690;23.356;2022-12-07T12:50:35;36.83;;;22.57;;
36391;SDS011;22639;42.690;23.356;2022-12-07T12:53:02;31.77;;;20.17;;
36391;SDS011;22639;42.690;23.356;2022-12-07T13:00:44;24.70;;;15.00;;
36391;SDS011;22639;42.690;23.356;2022-12-07T13:03:29;32.63;;;20.07;;
36391;SDS011;22639;42.690;23.356;2022-12-07T13:08:40;26.13;;;16.43;;
36391;SDS011;22639;42.690;23.356;2022-12-07T13:11:17;29.80;;;15.93;;
36391;SDS011;22639;42.690;23.356;2022-12-07T13:13:44;29.00;;;17.50;;
36391;SDS011;22639;42.690;23.356;2022-12-07T13:18:35;28.80;;;16.47;;
36391;SDS011;22639;42.690;23.356;2022-12-07T13:28:43;33.30;;;16.13;;
36391;SDS011;22639;42.690;23.356;2022-12-07T13:33:42;26.30;;;15.90;;
36391;SDS011;22639;42.690;23.356;2022-12-07T13:36:18;23.10;;;16.77;;
36391;SDS011;22639;42.690;23.356;2022-12-07T13:38:55;24.27;;;14.20;;
36391;SDS011;22639;42.690;23.356;2022-12-07T13:41:21;20.43;;;14.40;;
36391;SDS011;22639;42.690;23.356;2022-12-07T13:44:08;24.20;;;14.07;;
36391;SDS011;22639;42.690;23.356;2022-12-07T13:49:14;20.20;;;13.97;;
36391;SDS011;22639;42.690;23.356;2022-12-07T13:51:40;20.07;;;13.00;;
36391;SDS011;22639;42.690;23.356;2022-12-07T13:54:12;19.17;;;13.53;;
36391;SDS011;22639;42.690;23.356;2022-12-07T13:56:50;18.47;;;12.07;;
36391;SDS011;22639;42.690;23.356;2022-12-07T13:59:23;18.70;;;12.13;;
36391;SDS011;22639;42.690;23.356;2022-12-07T14:01:50;20.00;;;12.23;;
36391;SDS011;22639;42.690;23.356;2022-12-07T14:04:28;22.63;;;12.07;;
36391;SDS011;22639;42.690;23.356;2022-12-07T14:06:56;20.40;;;12.90;;
36391;SDS011;22639;42.690;23.356;2022-12-07T14:09:23;24.90;;;12.40;;
36391;SDS011;22639;42.690;23.356;2022-12-07T14:11:49;23.87;;;12.03;;
36391;SDS011;22639;42.690;23.356;2022-12-07T14:14:19;20.57;;;12.97;;
36391;SDS011;22639;42.690;23.356;2022-12-07T14:16:54;22.20;;;13.33;;
36391;SDS011;22639;42.690;23.356;2022-12-07T14:27:30;25.70;;;13.70;;
36391;SDS011;22639;42.690;23.356;2022-12-07T14:29:58;21.93;;;13.87;;
36391;SDS011;22639;42.690;23.356;2022-12-07T14:32:25;24.33;;;14.10;;
36391;SDS011;22639;42.690;23.356;2022-12-07T14:35:00;22.10;;;12.93;;
36391;SDS011;22639;42.690;23.356;2022-12-07T14:37:26;26.20;;;16.27;;
36391;SDS011;22639;42.690;23.356;2022-12-07T14:39:52;28.33;;;14.97;;
36391;SDS011;22639;42.690;23.356;2022-12-07T14:42:17;22.70;;;13.93;;
36391;SDS011;22639;42.690;23.356;2022-12-07T14:44:43;22.37;;;14.90;;
36391;SDS011;22639;42.690;23.356;2022-12-07T14:47:09;27.23;;;15.57;;
36391;SDS011;22639;42.690;23.356;2022-12-07T14:49:35;25.87;;;15.43;;
36391;SDS011;22639;42.690;23.356;2022-12-07T14:52:00;21.67;;;14.43;;
36391;SDS011;22639;42.690;23.356;2022-12-07T14:54:25;23.80;;;13.63;;
36391;SDS011;22639;42.690;23.356;2022-12-07T14:56:52;18.67;;;11.97;;
36391;SDS011;22639;42.690;23.356;2022-12-07T14:59:19;26.93;;;13.77;;
36391;SDS011;22639;42.690;23.356;2022-12-07T15:01:44;24.23;;;12.80;;
36391;SDS011;22639;42.690;23.356;2022-12-07T15:04:09;22.80;;;14.17;;
36391;SDS011;22639;42.690;23.356;2022-12-07T15:06:36;27.13;;;15.43;;
36391;SDS011;22639;42.690;23.356;2022-12-07T15:09:02;27.07;;;15.40;;
36391;SDS011;22639;42.690;23.356;2022-12-07T15:11:27;20.97;;;13.47;;
36391;SDS011;22639;42.690;23.356;2022-12-07T15:13:52;26.97;;;14.47;;
36391;SDS011;22639;42.690;23.356;2022-12-07T15:16:33;31.43;;;14.00;;
36391;SDS011;22639;42.690;23.356;2022-12-07T15:18:58;31.33;;;14.33;;
36391;SDS011;22639;42.690;23.356;2022-12-07T15:21:23;26.00;;;12.80;;
36391;SDS011;22639;42.690;23.356;2022-12-07T15:23:50;22.97;;;13.73;;
36391;SDS011;22639;42.690;23.356;2022-12-07T15:26:15;30.13;;;15.63;;
36391;SDS011;22639;42.690;23.356;2022-12-07T15:28:41;34.30;;;19.87;;
36391;SDS011;22639;42.690;23.356;2022-12-07T15:31:16;25.23;;;14.93;;
36391;SDS011;22639;42.690;23.356;2022-12-07T15:33:42;21.73;;;13.57;;
36391;SDS011;22639;42.690;23.356;2022-12-07T15:36:07;26.20;;;16.17;;
36391;SDS011;22639;42.690;23.356;2022-12-07T15:38:36;30.07;;;15.97;;
36391;SDS011;22639;42.690;23.356;2022-12-07T15:41:01;29.17;;;17.87;;
36391;SDS011;22639;42.690;23.356;2022-12-07T15:43:26;30.43;;;16.83;;
36391;SDS011;22639;42.690;23.356;2022-12-07T15:46:10;28.33;;;16.97;;
36391;SDS011;22639;42.690;23.356;2022-12-07T15:48:35;28.03;;;18.00;;
36391;SDS011;22639;42.690;23.356;2022-12-07T15:51:05;30.43;;;18.30;;
36391;SDS011;22639;42.690;23.356;2022-12-07T15:53:30;37.40;;;19.27;;
36391;SDS011;22639;42.690;23.356;2022-12-07T15:55:56;28.40;;;17.93;;
36391;SDS011;22639;42.690;23.356;2022-12-07T15:58:21;37.83;;;18.10;;
36391;SDS011;22639;42.690;23.356;2022-12-07T16:00:46;31.93;;;18.53;;
36391;SDS011;22639;42.690;23.356;2022-12-07T16:03:13;41.53;;;19.97;;
36391;SDS011;22639;42.690;23.356;2022-12-07T16:05:38;39.93;;;19.57;;
36391;SDS011;22639;42.690;23.356;2022-12-07T16:08:03;28.40;;;17.03;;
36391;SDS011;22639;42.690;23.356;2022-12-07T16:10:28;32.63;;;19.00;;
36391;SDS011;22639;42.690;23.356;2022-12-07T16:12:54;39.00;;;21.60;;
36391;SDS011;22639;42.690;23.356;2022-12-07T16:15:19;39.63;;;19.80;;
36391;SDS011;22639;42.690;23.356;2022-12-07T16:17:44;30.70;;;19.90;;